createdAt,value
2022-12-03T00:00:23.686Z,93347.25
2022-12-03T00:02:53.112Z,93353.03
2022-12-03T00:05:22.602Z,93351.19
2022-12-03T00:07:51.825Z,93356.31
2022-12-03T00:10:22.804Z,93352.81
2022-12-03T00:12:52.133Z,93358.81
2022-12-03T00:15:21.557Z,93353.66
2022-12-03T00:17:50.925Z,93360.50
2022-12-03T00:20:23.328Z,93363.03
2022-12-03T00:22:53.152Z,93359.59
2022-12-03T00:25:23.883Z,93362.25
2022-12-03T00:27:53.251Z,93352.69
2022-12-03T00:30:22.628Z,93349.25
2022-12-03T00:32:51.968Z,93359.59
2022-12-03T00:35:21.268Z,93363.09
2022-12-03T00:37:50.602Z,93364.00
2022-12-03T00:40:19.948Z,93369.31
2022-12-03T00:42:50.625Z,93371.03
2022-12-03T00:45:20.026Z,93378.63
2022-12-03T00:51:00.545Z,93387.09
2022-12-03T00:53:30.371Z,93382.75
2022-12-03T00:56:01.825Z,93386.25
2022-12-03T00:58:31.089Z,93392.41
2022-12-03T01:01:00.295Z,93393.34
2022-12-03T01:03:29.849Z,93400.28
2022-12-03T01:06:01.927Z,93389.91
2022-12-03T01:08:31.250Z,93401.13
2022-12-03T01:11:00.664Z,93400.19
2022-12-03T01:13:30.024Z,93392.59
2022-12-03T01:16:00.770Z,93390.88
2022-12-03T01:18:30.149Z,93400.41
2022-12-03T01:21:00.844Z,93410.03
2022-12-03T01:23:30.128Z,93394.47
2022-12-03T01:26:00.606Z,93395.22
2022-12-03T01:28:31.749Z,93393.47
2022-12-03T01:31:19.612Z,93391.75
2022-12-03T01:33:48.986Z,93397.69
2022-12-03T01:36:19.901Z,93398.59
2022-12-03T01:38:50.085Z,93396.84
2022-12-03T01:41:22.265Z,93394.25
2022-12-03T01:43:53.705Z,93396.00
2022-12-03T01:46:26.442Z,93395.09
2022-12-03T01:48:56.869Z,93396.84
2022-12-03T01:51:27.765Z,93393.47
2022-12-03T01:53:57.069Z,93396.06
2022-12-03T01:56:26.869Z,93393.56
2022-12-03T01:58:56.241Z,93404.13
2022-12-03T02:01:25.662Z,93407.16
2022-12-03T02:03:55.277Z,93402.13
2022-12-03T02:06:30.811Z,93396.72
2022-12-03T02:09:00.474Z,93399.19
2022-12-03T02:11:34.931Z,93401.78
2022-12-03T02:14:10.962Z,93397.41
2022-12-03T02:16:43.902Z,93399.31
2022-12-03T02:19:29.626Z,93395.19
2022-12-03T02:22:10.084Z,93406.53
2022-12-03T02:24:47.429Z,93408.31
2022-12-03T02:27:18.171Z,93402.94
2022-12-03T02:29:47.648Z,93408.00
2022-12-03T02:32:17.015Z,93413.88
2022-12-03T02:34:48.177Z,93406.03
2022-12-03T02:37:23.766Z,93414.59
2022-12-03T02:39:57.390Z,93419.16
2022-12-03T02:42:37.608Z,93415.63
2022-12-03T02:45:12.147Z,93416.38
2022-12-03T02:47:46.771Z,93416.56
2022-12-03T02:50:20.571Z,93418.28
2022-12-03T02:52:51.070Z,93423.31
2022-12-03T02:55:21.107Z,93425.00
2022-12-03T02:57:53.924Z,93421.50
2022-12-03T03:00:24.364Z,93423.25
2022-12-03T03:02:53.888Z,93419.31
2022-12-03T03:05:25.784Z,93428.19
2022-12-03T03:07:55.334Z,93425.59
2022-12-03T03:10:26.474Z,93423.75
2022-12-03T03:12:58.485Z,93420.31
2022-12-03T03:15:27.986Z,93426.47
2022-12-03T03:17:58.766Z,93411.94
2022-12-03T03:20:28.387Z,93420.47
2022-12-03T03:23:08.624Z,93429.91
2022-12-03T03:25:38.192Z,93428.19
2022-12-03T03:28:10.252Z,93431.53
2022-12-03T03:30:42.953Z,93423.00
2022-12-03T03:33:13.345Z,93413.41
2022-12-03T03:35:45.270Z,93420.41
2022-12-03T03:38:16.396Z,93423.25
2022-12-03T03:40:46.567Z,93420.97
2022-12-03T03:43:19.172Z,93431.44
2022-12-03T03:45:48.650Z,93422.78
2022-12-03T03:48:18.312Z,93424.31
2022-12-03T03:52:00.944Z,93416.75
2022-12-03T03:54:30.844Z,93427.91
2022-12-03T03:57:00.604Z,93426.06
2022-12-03T03:59:31.502Z,93427.53
2022-12-03T04:02:00.771Z,93428.38
2022-12-03T04:04:36.994Z,93440.47
2022-12-03T04:07:07.824Z,93432.66
2022-12-03T04:09:37.211Z,93437.84
2022-12-03T04:12:24.688Z,93431.88
2022-12-03T04:14:55.708Z,93432.66
2022-12-03T04:17:25.293Z,93430.81
2022-12-03T04:19:54.616Z,93425.59
2022-12-03T04:22:43.067Z,93434.09
2022-12-03T04:25:30.367Z,93428.94
2022-12-03T04:28:13.506Z,93442.00
2022-12-03T04:30:42.915Z,93441.97
2022-12-03T04:33:29.993Z,93448.91
2022-12-03T04:36:00.640Z,93452.59
2022-12-03T04:38:31.526Z,93460.50
2022-12-03T04:41:02.171Z,93463.03
2022-12-03T04:43:32.926Z,93456.84
2022-12-03T04:46:03.343Z,93449.94
2022-12-03T04:48:32.684Z,93455.78
2022-12-03T04:51:02.064Z,93456.72
2022-12-03T04:53:35.376Z,93467.16
2022-12-03T04:56:05.512Z,93465.53
2022-12-03T04:58:34.804Z,93462.03
2022-12-03T05:01:04.315Z,93449.94
2022-12-03T05:03:33.707Z,93452.44
2022-12-03T05:06:03.064Z,93452.66
2022-12-03T05:08:33.844Z,93463.94
2022-12-03T05:11:04.588Z,93464.78
2022-12-03T05:13:34.081Z,93472.38
2022-12-03T05:16:03.345Z,93478.41
2022-12-03T05:18:34.048Z,93486.13
2022-12-03T05:21:03.472Z,93486.13
2022-12-03T05:23:35.815Z,93485.31
2022-12-03T05:26:06.625Z,93486.19
2022-12-03T05:28:37.270Z,93500.94
2022-12-03T05:31:06.738Z,93495.75
2022-12-03T05:33:40.920Z,93486.25
2022-12-03T05:36:13.284Z,93485.47
2022-12-03T05:38:44.084Z,93496.75
2022-12-03T05:41:31.084Z,93499.25
2022-12-03T05:44:00.490Z,93498.28
2022-12-03T05:46:31.109Z,93496.38
2022-12-03T05:49:00.403Z,93497.22
2022-12-03T05:51:30.035Z,93501.56
2022-12-03T05:54:00.821Z,93495.56
2022-12-03T05:56:31.693Z,93501.56
2022-12-03T05:59:01.074Z,93504.31
2022-12-03T06:01:30.364Z,93510.75
2022-12-03T06:03:59.880Z,93504.69
2022-12-03T06:06:30.744Z,93516.81
2022-12-03T06:09:01.547Z,93521.84
2022-12-03T06:11:34.084Z,93517.47
2022-12-03T06:14:03.605Z,93519.28
2022-12-03T06:16:33.012Z,93519.16
2022-12-03T06:19:02.404Z,93518.16
2022-12-03T06:21:33.453Z,93517.38
2022-12-03T06:24:04.129Z,93528.59
2022-12-03T06:26:33.432Z,93526.91
2022-12-03T06:29:02.779Z,93524.16
2022-12-03T06:31:32.114Z,93523.19
2022-12-03T06:34:01.547Z,93528.47
2022-12-03T06:36:30.925Z,93533.63
2022-12-03T06:39:00.526Z,93530.00
2022-12-03T06:41:32.741Z,93530.97
2022-12-03T06:44:02.121Z,93536.06
2022-12-03T06:46:32.958Z,93530.88
2022-12-03T06:52:01.947Z,93536.78
2022-12-03T06:54:31.208Z,93542.88
2022-12-03T06:57:01.689Z,93534.41
2022-12-03T06:59:34.306Z,93535.09
2022-12-03T07:02:03.858Z,93534.06
2022-12-03T07:04:34.643Z,93536.56
2022-12-03T07:07:05.546Z,93537.41
2022-12-03T07:09:36.128Z,93537.69
2022-12-03T07:12:05.699Z,93539.31
2022-12-03T07:14:36.776Z,93535.69
2022-12-03T07:17:06.184Z,93536.72
2022-12-03T07:19:35.445Z,93532.59
2022-12-03T07:22:06.309Z,93541.00
2022-12-03T07:24:35.650Z,93532.94
2022-12-03T07:27:05.156Z,93540.16
2022-12-03T07:29:34.544Z,93542.53
2022-12-03T07:32:05.624Z,93541.41
2022-12-03T07:34:34.867Z,93536.09
2022-12-03T07:37:06.848Z,93536.72
2022-12-03T07:39:36.071Z,93534.84
2022-12-03T07:42:05.684Z,93536.81
2022-12-03T07:44:35.066Z,93530.09
2022-12-03T07:47:04.498Z,93534.00
2022-12-03T07:49:34.199Z,93540.88
2022-12-03T07:52:03.674Z,93545.13
2022-12-03T07:54:34.389Z,93548.78
2022-12-03T07:57:04.030Z,93552.16
2022-12-03T07:59:33.454Z,93550.09
2022-12-03T08:02:04.363Z,93554.25
2022-12-03T08:04:35.032Z,93552.06
2022-12-03T08:07:06.451Z,93548.28
2022-12-03T08:09:41.076Z,93547.22
2022-12-03T08:12:19.353Z,93550.75
2022-12-03T08:14:49.968Z,93555.75
2022-12-03T08:17:21.985Z,93552.91
2022-12-03T08:19:51.230Z,93560.56
2022-12-03T08:22:20.512Z,93552.78
2022-12-03T08:24:52.734Z,93550.22
2022-12-03T08:27:23.827Z,93560.69
2022-12-03T08:30:03.195Z,93558.94
2022-12-03T08:32:34.046Z,93562.28
2022-12-03T08:35:09.882Z,93559.63
2022-12-03T08:37:39.257Z,93561.31
2022-12-03T08:40:24.669Z,93554.44
2022-12-03T08:42:54.046Z,93558.78
2022-12-03T08:45:43.917Z,93554.56
2022-12-03T08:48:37.075Z,93563.28
2022-12-03T08:51:16.871Z,93559.84
2022-12-03T08:53:50.842Z,93564.13
2022-12-03T08:56:27.312Z,93563.28
2022-12-03T08:59:00.963Z,93561.66
2022-12-03T09:01:35.006Z,93559.91
2022-12-03T09:04:37.789Z,93564.13
2022-12-03T09:07:07.627Z,93565.78
2022-12-03T09:09:37.014Z,93563.34
2022-12-03T09:12:10.893Z,93566.09
2022-12-03T09:14:41.405Z,93565.16
2022-12-03T09:17:11.152Z,93555.72
2022-12-03T09:19:46.202Z,93555.84
2022-12-03T09:22:17.522Z,93553.34
2022-12-03T09:24:47.072Z,93548.19
2022-12-03T09:27:19.095Z,93546.53
2022-12-03T09:29:48.528Z,93542.13
2022-12-03T09:32:18.770Z,93545.63
2022-12-03T09:34:48.296Z,93542.97
2022-12-03T09:37:17.723Z,93539.38
2022-12-03T09:39:48.526Z,93538.75
2022-12-03T09:42:20.067Z,93533.56
2022-12-03T09:44:50.742Z,93535.25
2022-12-03T09:47:22.492Z,93536.78
2022-12-03T09:52:04.920Z,93533.72
2022-12-03T09:54:35.585Z,93532.88
2022-12-03T09:57:07.828Z,93524.47
2022-12-03T09:59:37.199Z,93527.81
2022-12-03T10:02:16.979Z,93525.16
2022-12-03T10:04:46.406Z,93518.91
2022-12-03T10:07:17.451Z,93519.81
2022-12-03T10:09:46.971Z,93520.25
2022-12-03T10:12:17.524Z,93515.00
2022-12-03T10:14:46.874Z,93521.66
2022-12-03T10:17:16.323Z,93521.13
2022-12-03T10:19:45.911Z,93514.97
2022-12-03T10:22:16.726Z,93519.47
2022-12-03T10:24:47.230Z,93513.50
2022-12-03T10:27:25.830Z,93508.78
2022-12-03T10:30:00.278Z,93507.44
2022-12-03T10:32:44.527Z,93506.53
2022-12-03T10:35:16.473Z,93503.41
2022-12-03T10:38:02.696Z,93503.03
2022-12-03T10:40:35.946Z,93505.63
2022-12-03T10:43:24.854Z,93506.41
2022-12-03T10:46:13.613Z,93513.28
2022-12-03T10:48:43.031Z,93495.84
2022-12-03T10:51:21.435Z,93506.84
2022-12-03T10:53:54.472Z,93508.22
2022-12-03T10:56:27.667Z,93501.59
2022-12-03T10:58:57.532Z,93494.97
2022-12-03T11:01:28.850Z,93496.03
2022-12-03T11:04:06.109Z,93500.34
2022-12-03T11:06:35.623Z,93502.75
2022-12-03T11:09:09.088Z,93499.00
2022-12-03T11:11:38.992Z,93498.75
2022-12-03T11:14:08.564Z,93498.38
2022-12-03T11:17:12.212Z,93498.53
2022-12-03T11:19:52.742Z,93497.38
2022-12-03T11:22:45.606Z,93494.63
2022-12-03T11:25:50.785Z,93497.00
2022-12-03T11:28:55.056Z,93496.44
2022-12-03T11:31:42.823Z,93498.06
2022-12-03T11:34:50.784Z,93499.81
2022-12-03T11:37:31.254Z,93499.00
2022-12-03T11:40:32.432Z,93499.91
2022-12-03T11:43:12.377Z,93497.69
2022-12-03T11:45:41.744Z,93504.56
2022-12-03T11:48:15.988Z,93505.78
2022-12-03T11:50:51.507Z,93503.50
2022-12-03T11:53:25.367Z,93502.56
2022-12-03T11:56:09.318Z,93497.69
2022-12-03T11:58:43.712Z,93500.88
2022-12-03T12:01:14.592Z,93495.84
2022-12-03T12:03:48.673Z,93496.75
2022-12-03T12:06:20.745Z,93506.91
2022-12-03T12:09:00.033Z,93499.81
2022-12-03T12:11:31.612Z,93502.28
2022-12-03T12:14:03.692Z,93506.47
2022-12-03T12:16:52.820Z,93502.09
2022-12-03T12:19:43.316Z,93500.56
2022-12-03T12:22:33.727Z,93494.78
2022-12-03T12:25:04.685Z,93494.94
2022-12-03T12:27:45.333Z,93493.25
2022-12-03T12:30:20.068Z,93502.19
2022-12-03T12:32:52.132Z,93492.78
2022-12-03T12:35:25.861Z,93490.28
2022-12-03T12:37:59.959Z,93488.81
2022-12-03T12:40:32.128Z,93493.00
2022-12-03T12:43:10.278Z,93490.41
2022-12-03T12:45:46.052Z,93488.13
2022-12-03T12:48:25.107Z,93481.09
2022-12-03T12:52:01.488Z,93487.28
2022-12-03T12:54:30.872Z,93483.88
2022-12-03T12:57:00.114Z,93484.75
2022-12-03T12:59:31.546Z,93478.81
2022-12-03T13:02:08.596Z,93480.44
2022-12-03T13:04:40.422Z,93479.56
2022-12-03T13:07:12.225Z,93482.34
2022-12-03T13:09:41.514Z,93481.19
2022-12-03T13:12:24.364Z,93486.16
2022-12-03T13:14:54.464Z,93491.25
2022-12-03T13:17:26.245Z,93492.88
2022-12-03T13:20:06.715Z,93493.19
2022-12-03T13:22:38.089Z,93499.44
2022-12-03T13:28:29.785Z,93503.47
2022-12-03T13:31:18.409Z,93505.28
2022-12-03T13:33:47.683Z,93493.94
2022-12-03T13:36:20.080Z,93498.50
2022-12-03T13:38:51.609Z,93507.03
2022-12-03T13:41:41.177Z,93507.88
2022-12-03T13:44:20.909Z,93509.50
2022-12-03T13:46:50.243Z,93508.50
2022-12-03T13:49:24.811Z,93516.34
2022-12-03T13:51:54.222Z,93519.09
2022-12-03T13:54:30.388Z,93517.34
2022-12-03T13:57:02.911Z,93523.44
2022-12-03T13:59:32.165Z,93513.97
2022-12-03T14:02:01.606Z,93521.00
2022-12-03T14:04:31.009Z,93525.34
2022-12-03T14:07:00.285Z,93521.22
2022-12-03T14:09:31.066Z,93518.97
2022-12-03T14:12:17.785Z,93520.03
2022-12-03T14:14:47.342Z,93515.22
2022-12-03T14:17:18.179Z,93524.88
2022-12-03T14:19:47.833Z,93515.44
2022-12-03T14:22:19.668Z,93515.38
2022-12-03T14:24:50.445Z,93520.63
2022-12-03T14:27:20.327Z,93518.25
2022-12-03T14:29:49.924Z,93514.72
2022-12-03T14:32:19.220Z,93517.41
2022-12-03T14:34:48.628Z,93519.06
2022-12-03T14:37:19.416Z,93527.16
2022-12-03T14:39:50.208Z,93520.41
2022-12-03T14:42:21.107Z,93522.31
2022-12-03T14:44:53.427Z,93530.09
2022-12-03T14:47:24.463Z,93531.75
2022-12-03T14:49:54.626Z,93542.06
2022-12-03T14:52:24.016Z,93535.41
2022-12-03T14:54:54.847Z,93541.56
2022-12-03T14:57:24.104Z,93538.06
2022-12-03T14:59:53.825Z,93546.06
2022-12-03T15:02:23.501Z,93542.19
2022-12-03T15:04:52.948Z,93542.38
2022-12-03T15:07:22.364Z,93549.09
2022-12-03T15:09:56.459Z,93543.72
2022-12-03T15:12:26.186Z,93544.50
2022-12-03T15:14:56.888Z,93545.41
2022-12-03T15:17:31.617Z,93542.66
2022-12-03T15:20:01.411Z,93542.53
2022-12-03T15:22:31.945Z,93550.19
2022-12-03T15:25:03.653Z,93540.75
2022-12-03T15:27:32.948Z,93550.19
2022-12-03T15:30:02.383Z,93551.84
2022-12-03T15:32:31.684Z,93553.63
2022-12-03T15:35:01.164Z,93545.00
2022-12-03T15:37:30.424Z,93546.81
2022-12-03T15:39:59.757Z,93551.22
2022-12-03T15:42:30.547Z,93558.16
2022-12-03T15:44:59.932Z,93551.31
2022-12-03T15:47:29.325Z,93559.91
2022-12-03T15:52:00.345Z,93554.66
2022-12-03T15:54:29.674Z,93563.34
2022-12-03T15:56:58.964Z,93562.63
2022-12-03T15:59:28.325Z,93564.41
2022-12-03T16:01:57.598Z,93568.78
2022-12-03T16:04:27.110Z,93571.44
2022-12-03T16:06:56.339Z,93564.44
2022-12-03T16:09:27.859Z,93575.66
2022-12-03T16:11:58.464Z,93575.66
2022-12-03T16:14:27.750Z,93568.75
2022-12-03T16:16:59.136Z,93572.16
2022-12-03T16:19:29.845Z,93565.31
2022-12-03T16:22:00.700Z,93568.88
2022-12-03T16:24:31.445Z,93579.09
2022-12-03T16:27:00.947Z,93577.41
2022-12-03T16:29:30.293Z,93581.81
2022-12-03T16:31:59.755Z,93586.91
2022-12-03T16:34:29.210Z,93587.75
2022-12-03T16:36:58.620Z,93591.22
2022-12-03T16:39:29.346Z,93593.09
2022-12-03T16:41:58.625Z,93593.94
2022-12-03T16:44:33.694Z,93591.47
2022-12-03T16:47:03.083Z,93586.41
2022-12-03T16:49:34.145Z,93586.38
2022-12-03T16:52:03.510Z,93588.25
2022-12-03T16:54:34.162Z,93591.59
2022-12-03T16:57:03.430Z,93597.63
2022-12-03T16:59:32.692Z,93598.47
2022-12-03T17:02:02.100Z,93602.75
2022-12-03T17:04:31.425Z,93601.06
2022-12-03T17:07:00.988Z,93598.59
2022-12-03T17:09:30.245Z,93603.78
2022-12-03T17:12:01.025Z,93601.28
2022-12-03T17:14:33.437Z,93598.69
2022-12-03T17:17:04.452Z,93608.19
2022-12-03T17:19:33.884Z,93614.25
2022-12-03T17:22:03.265Z,93612.66
2022-12-03T17:24:34.174Z,93613.50
2022-12-03T17:27:06.444Z,93616.03
2022-12-03T17:29:35.969Z,93624.59
2022-12-03T17:32:07.304Z,93616.84
2022-12-03T17:34:36.845Z,93620.28
2022-12-03T17:37:06.193Z,93628.94
2022-12-03T17:39:35.445Z,93628.00
2022-12-03T17:42:06.552Z,93628.94
2022-12-03T17:44:35.825Z,93631.50
2022-12-03T17:47:05.426Z,93628.94
2022-12-03T17:49:34.766Z,93630.66
2022-12-03T17:52:05.604Z,93628.06
2022-12-03T17:55:01.934Z,93632.41
2022-12-03T17:57:25.694Z,93635.91
2022-12-03T17:59:55.295Z,93637.56
2022-12-03T18:02:24.922Z,93641.00
2022-12-03T18:04:54.225Z,93639.28
2022-12-03T18:07:24.927Z,93641.91
2022-12-03T18:09:55.623Z,93644.50
2022-12-03T18:12:26.837Z,93641.16
2022-12-03T18:14:56.125Z,93650.59
2022-12-03T18:17:25.448Z,93643.78
2022-12-03T18:19:55.050Z,93643.88
2022-12-03T18:22:24.657Z,93651.84
2022-12-03T18:24:54.004Z,93652.59
2022-12-03T18:27:23.771Z,93637.94
2022-12-03T18:29:54.794Z,93648.22
2022-12-03T18:32:29.210Z,93648.28
2022-12-03T18:34:59.532Z,93651.84
2022-12-03T18:37:32.093Z,93648.53
2022-12-03T18:40:02.139Z,93649.38
2022-12-03T18:42:32.751Z,93652.03
2022-12-03T18:45:07.825Z,93649.44
2022-12-03T18:47:37.219Z,93648.53
2022-12-03T18:52:00.249Z,93649.69
2022-12-03T18:54:29.515Z,93648.00
2022-12-03T18:56:58.866Z,93655.72
2022-12-03T18:59:28.125Z,93665.19
2022-12-03T19:01:57.469Z,93660.94
2022-12-03T19:04:27.030Z,93660.84
2022-12-03T19:06:56.489Z,93650.41
2022-12-03T19:09:28.997Z,93657.28
2022-12-03T19:11:58.264Z,93657.28
2022-12-03T19:14:27.630Z,93653.91
2022-12-03T19:16:56.946Z,93660.84
2022-12-03T19:19:27.643Z,93659.16
2022-12-03T19:21:58.720Z,93660.94
2022-12-03T19:24:30.789Z,93663.50
2022-12-03T19:27:00.090Z,93656.63
2022-12-03T19:29:29.484Z,93654.22
2022-12-03T19:31:58.941Z,93658.75
2022-12-03T19:34:30.005Z,93659.53
2022-12-03T19:36:59.364Z,93661.25
2022-12-03T19:39:30.165Z,93652.63
2022-12-03T19:41:59.525Z,93656.03
2022-12-03T19:44:28.864Z,93661.34
2022-12-03T19:46:58.213Z,93664.31
2022-12-03T19:49:27.896Z,93665.25
2022-12-03T19:51:57.298Z,93662.69
2022-12-03T19:54:26.569Z,93663.47
2022-12-03T19:56:58.467Z,93664.22
2022-12-03T19:59:29.063Z,93669.59
2022-12-03T20:01:59.796Z,93670.44
2022-12-03T20:04:29.190Z,93664.31
2022-12-03T20:06:58.548Z,93659.97
2022-12-03T20:09:27.849Z,93671.16
2022-12-03T20:11:58.749Z,93665.16
2022-12-03T20:14:28.070Z,93659.06
2022-12-03T20:16:59.149Z,93671.13
2022-12-03T20:19:28.536Z,93671.16
2022-12-03T20:22:02.730Z,93666.19
2022-12-03T20:24:32.427Z,93661.84
2022-12-03T20:27:03.126Z,93673.09
2022-12-03T20:29:32.401Z,93675.69
2022-12-03T20:32:02.079Z,93674.00
2022-12-03T20:34:31.424Z,93669.03
2022-12-03T20:37:00.785Z,93671.66
2022-12-03T20:39:30.091Z,93682.09
2022-12-03T20:41:59.390Z,93675.34
2022-12-03T20:44:30.208Z,93670.28
2022-12-03T20:47:00.944Z,93674.44
2022-12-03T20:49:30.253Z,93671.00
2022-12-03T20:52:04.374Z,93669.41
2022-12-03T20:54:34.189Z,93670.28
2022-12-03T20:57:03.644Z,93668.72
2022-12-03T20:59:34.380Z,93669.50
2022-12-03T21:02:04.032Z,93671.19
2022-12-03T21:04:33.485Z,93674.50
2022-12-03T21:07:03.054Z,93667.47
2022-12-03T21:09:32.391Z,93671.84
2022-12-03T21:12:01.725Z,93678.88
2022-12-03T21:14:32.654Z,93678.88
2022-12-03T21:17:09.805Z,93673.91
2022-12-03T21:19:40.809Z,93674.91
2022-12-03T21:22:10.166Z,93673.38
2022-12-03T21:24:39.411Z,93662.91
2022-12-03T21:27:08.725Z,93665.47
2022-12-03T21:29:40.052Z,93667.13
2022-12-03T21:32:10.779Z,93670.53
2022-12-03T21:34:42.025Z,93668.78
2022-12-03T21:37:11.384Z,93673.00
2022-12-03T21:39:41.830Z,93675.66
2022-12-03T21:42:34.882Z,93679.97
2022-12-03T21:45:01.885Z,93679.06
2022-12-03T21:47:37.222Z,93672.94
2022-12-03T21:52:00.104Z,93673.84
2022-12-03T21:54:29.509Z,93673.78
2022-12-03T21:56:58.883Z,93678.03
2022-12-03T21:59:28.325Z,93667.88
2022-12-03T22:01:59.207Z,93665.38
2022-12-03T22:04:30.305Z,93675.72
2022-12-03T22:07:00.967Z,93668.91
2022-12-03T22:09:33.685Z,93680.97
2022-12-03T22:12:04.332Z,93676.63
2022-12-03T22:14:33.765Z,93676.63
2022-12-03T22:17:04.549Z,93684.38
2022-12-03T22:19:34.104Z,93678.41
2022-12-03T22:22:06.311Z,93669.06
2022-12-03T22:24:35.862Z,93669.94
2022-12-03T22:27:05.286Z,93671.69
2022-12-03T22:29:35.226Z,93673.50
2022-12-03T22:32:04.545Z,93674.44
2022-12-03T22:34:34.387Z,93669.22
2022-12-03T22:37:05.240Z,93662.25
2022-12-03T22:39:34.855Z,93661.41
2022-12-03T22:42:04.266Z,93657.31
2022-12-03T22:44:33.668Z,93669.47
2022-12-03T22:47:03.109Z,93669.72
2022-12-03T22:49:32.705Z,93665.38
2022-12-03T22:52:02.069Z,93667.97
2022-12-03T22:54:34.344Z,93662.00
2022-12-03T22:57:05.206Z,93666.50
2022-12-03T22:59:34.543Z,93662.19
2022-12-03T23:02:03.991Z,93670.59
2022-12-03T23:04:33.346Z,93665.56
2022-12-03T23:07:02.688Z,93665.78
2022-12-03T23:09:33.406Z,93656.13
2022-12-03T23:12:04.466Z,93667.16
2022-12-03T23:14:33.748Z,93664.75
2022-12-03T23:17:04.931Z,93664.00
2022-12-03T23:19:34.324Z,93663.09
2022-12-03T23:22:03.585Z,93664.09
2022-12-03T23:24:34.846Z,93670.41
2022-12-03T23:27:05.327Z,93665.22
2022-12-03T23:29:36.825Z,93660.84
2022-12-03T23:32:06.424Z,93659.94
2022-12-03T23:34:36.275Z,93654.75
2022-12-03T23:37:05.746Z,93647.81
2022-12-03T23:39:38.364Z,93658.03
2022-12-03T23:42:07.785Z,93649.31
2022-12-03T23:44:37.164Z,93635.59
2022-12-03T23:47:06.734Z,93644.22
2022-12-03T23:49:36.333Z,93646.84
2022-12-03T23:52:05.790Z,93651.28
2022-12-03T23:54:37.551Z,93642.75
2022-12-03T23:57:08.164Z,93647.13
2022-12-03T23:59:39.405Z,93644.53
